Time;durP1;ratioP1;P1;durP2;ratioP2;P2;SDS_P1;SDS_P2;PMS_P1;PMS_P2;Temp;Humidity;BMP_temperature;BMP_pressure;BME280_temperature;BME280_humidity;BME280_pressure;Samples;Min_cycle;Max_cycle;Signal;HPM_P1;HPM_P2
2023/09/09 00:01:56;;;;;;;7.25;5.47;;;;;;;17.08;100.00;95411.41;5088599;28;20056;-96
2023/09/09 00:04:22;;;;;;;6.28;5.43;;;;;;;17.14;100.00;95407.22;5087819;28;20036;-95
2023/09/09 00:06:47;;;;;;;9.18;6.05;;;;;;;16.97;100.00;95422.50;5071215;28;20028;-96
2023/09/09 00:09:15;;;;;;;6.20;5.60;;;;;;;16.94;100.00;95420.28;5086699;28;20040;-96
2023/09/09 00:11:40;;;;;;;7.28;5.40;;;;;;;16.84;100.00;95414.59;5088380;28;20024;-95
2023/09/09 00:14:05;;;;;;;7.47;5.95;;;;;;;16.64;100.00;95434.66;5088648;28;20024;-94
2023/09/09 00:16:33;;;;;;;12.57;6.18;;;;;;;16.58;100.00;95428.41;5088575;28;20098;-95
2023/09/09 00:18:58;;;;;;;7.82;5.88;;;;;;;16.49;100.00;95434.78;5071616;28;20473;-95
2023/09/09 00:21:24;;;;;;;7.50;6.75;;;;;;;16.66;100.00;95433.44;5086602;28;20035;-95
2023/09/09 00:23:49;;;;;;;8.90;6.82;;;;;;;16.43;100.00;95434.75;5089719;28;20023;-95
2023/09/09 00:26:14;;;;;;;10.50;6.80;;;;;;;16.56;100.00;95432.22;5086646;28;20067;-96
2023/09/09 00:28:40;;;;;;;12.40;7.32;;;;;;;16.57;100.00;95446.91;5071000;28;20051;-96
2023/09/09 00:31:05;;;;;;;10.93;7.70;;;;;;;16.51;100.00;95435.38;5086835;28;20089;-95
2023/09/09 00:33:30;;;;;;;12.38;7.32;;;;;;;16.53;100.00;95437.81;5088733;28;20122;-96
2023/09/09 00:35:59;;;;;;;11.38;8.25;;;;;;;16.54;100.00;95421.09;5089958;28;20371;-96
2023/09/09 00:38:25;;;;;;;8.10;7.38;;;;;;;16.39;100.00;95420.44;5075477;28;20016;-96
2023/09/09 00:41:09;;;;;;;8.63;7.80;;;;;;;16.31;100.00;95443.13;5093609;28;20020;-96
2023/09/09 00:43:37;;;;;;;16.88;8.60;;;;;;;16.34;100.00;95434.91;5091903;28;20397;-95
2023/09/09 00:46:03;;;;;;;8.57;7.68;;;;;;;16.34;100.00;95426.28;5075134;28;20034;-96
2023/09/09 00:48:29;;;;;;;10.88;7.53;;;;;;;16.22;100.00;95423.38;5092206;28;20106;-95
2023/09/09 00:50:54;;;;;;;11.38;7.70;;;;;;;16.20;100.00;95429.81;5091789;28;20539;-95
2023/09/09 00:53:20;;;;;;;11.20;7.32;;;;;;;16.23;100.00;95425.00;5091092;28;20027;-95
2023/09/09 00:55:45;;;;;;;10.15;7.78;;;;;;;16.13;100.00;95421.94;5073568;28;20493;-94
2023/09/09 00:58:11;;;;;;;11.38;8.82;;;;;;;16.02;100.00;95429.53;5091151;28;20093;-96
2023/09/09 01:00:37;;;;;;;9.85;8.95;;;;;;;15.97;100.00;95440.53;5090212;28;20031;-96
2023/09/09 01:03:05;;;;;;;12.02;8.38;;;;;;;15.90;100.00;95438.88;5092173;28;20032;-95
2023/09/09 01:05:31;;;;;;;12.85;9.50;;;;;;;15.82;100.00;95443.28;5091162;28;20024;-95
2023/09/09 01:07:56;;;;;;;13.05;9.00;;;;;;;15.79;100.00;95445.44;5091224;28;20063;-95
2023/09/09 01:10:23;;;;;;;11.57;9.15;;;;;;;15.80;100.00;95441.81;5090485;28;20111;-95
2023/09/09 01:12:50;;;;;;;10.65;9.45;;;;;;;15.43;100.00;95452.56;5093431;28;20028;-96
2023/09/09 01:15:15;;;;;;;13.07;11.70;;;;;;;15.38;100.00;95484.44;5091643;28;20115;-95
2023/09/09 01:17:41;;;;;;;12.90;10.05;;;;;;;15.51;100.00;95468.91;5090090;28;20056;-96
2023/09/09 01:20:13;;;;;;;15.00;9.90;;;;;;;15.49;100.00;95470.91;5091182;28;20089;-96
2023/09/09 01:22:40;;;;;;;12.65;11.45;;;;;;;14.96;100.00;95481.81;5092443;28;20032;-95
2023/09/09 01:25:06;;;;;;;14.88;13.45;;;;;;;14.90;100.00;95513.84;5096343;28;20035;-94
2023/09/09 01:27:32;;;;;;;14.52;12.95;;;;;;;15.16;100.00;95514.13;5089718;28;20038;-96
2023/09/09 01:29:57;;;;;;;20.77;15.63;;;;;;;14.90;100.00;95509.41;5094880;28;20020;-95
2023/09/09 01:32:23;;;;;;;19.98;15.65;;;;;;;14.84;100.00;95528.41;5094803;28;20024;-96
2023/09/09 01:34:49;;;;;;;18.30;16.27;;;;;;;15.11;100.00;95527.75;5073603;28;20036;-95
2023/09/09 01:37:14;;;;;;;19.90;18.02;;;;;;;15.00;100.00;95523.00;5090368;28;20024;-96
2023/09/09 01:39:40;;;;;;;20.02;18.13;;;;;;;14.98;100.00;95519.75;5090916;28;20020;-96
2023/09/09 01:42:05;;;;;;;22.80;18.27;;;;;;;14.89;100.00;95527.88;5090761;28;20531;-96
2023/09/09 01:44:30;;;;;;;20.92;19.02;;;;;;;14.95;100.00;95524.53;5072157;28;20039;-95
2023/09/09 01:46:56;;;;;;;21.92;17.88;;;;;;;14.93;100.00;95509.06;5091421;28;20017;-96
2023/09/09 01:49:21;;;;;;;24.08;19.77;;;;;;;14.86;100.00;95512.59;5089162;28;20016;-96
2023/09/09 01:51:47;;;;;;;23.70;21.08;;;;;;;14.72;100.00;95509.81;5090847;28;20516;-96
2023/09/09 01:54:12;;;;;;;22.88;20.48;;;;;;;14.56;100.00;95523.06;5091186;28;20032;-96
2023/09/09 01:56:37;;;;;;;21.33;19.25;;;;;;;14.49;100.00;95521.34;5090434;28;20517;-95
2023/09/09 01:59:03;;;;;;;21.90;18.02;;;;;;;14.45;100.00;95518.28;5089791;28;20088;-96
2023/09/09 02:01:28;;;;;;;19.95;17.60;;;;;;;14.57;100.00;95526.47;5072365;28;20496;-96
2023/09/09 02:03:54;;;;;;;20.88;19.05;;;;;;;14.46;100.00;95517.31;5090987;28;20075;-96
2023/09/09 02:06:19;;;;;;;19.75;17.88;;;;;;;14.54;100.00;95519.03;5088589;28;20028;-96
2023/09/09 02:08:45;;;;;;;20.98;18.95;;;;;;;14.37;100.00;95520.19;5090270;28;20024;-94
2023/09/09 02:11:10;;;;;;;18.63;16.92;;;;;;;14.36;100.00;95526.38;5071706;28;20169;-95
2023/09/09 02:13:35;;;;;;;20.27;18.33;;;;;;;14.33;100.00;95514.53;5090999;28;20050;-94
2023/09/09 02:16:07;;;;;;;20.45;18.45;;;;;;;14.30;100.00;95521.84;5089749;28;20024;-96
2023/09/09 02:18:37;;;;;;;19.13;17.27;;;;;;;14.18;100.00;95519.72;5089573;28;20024;-96
2023/09/09 02:21:03;;;;;;;22.63;20.45;;;;;;;14.11;100.00;95517.97;5090392;28;20024;-95
2023/09/09 02:23:29;;;;;;;20.63;18.50;;;;;;;13.96;100.00;95536.22;5094129;28;20112;-93
2023/09/09 02:25:55;;;;;;;21.38;19.08;;;;;;;14.02;100.00;95538.09;5090548;28;20058;-95
2023/09/09 02:30:55;;;;;;;20.88;18.80;;;;;;;13.80;100.00;95515.53;5624927;22;20057;-94
2023/09/09 02:33:21;;;;;;;20.33;18.38;;;;;;;13.79;100.00;95519.09;5023129;28;20495;-94
2023/09/09 02:35:46;;;;;;;21.50;19.55;;;;;;;13.71;100.00;95524.34;5014804;28;20505;-92
2023/09/09 02:38:11;;;;;;;24.42;21.80;;;;;;;13.89;100.00;95539.69;5016003;28;20437;-93
2023/09/09 02:40:37;;;;;;;22.88;19.92;;;;;;;13.81;100.00;95531.94;5034582;28;20029;-91
2023/09/09 02:43:02;;;;;;;21.83;19.58;;;;;;;13.71;100.00;95534.78;5520805;23;20459;-93
2023/09/09 02:45:28;;;;;;;19.83;18.13;;;;;;;13.76;100.00;95531.66;4987869;28;20499;-95
2023/09/09 02:47:53;;;;;;;21.23;19.40;;;;;;;13.78;100.00;95527.88;4971202;28;20033;-94
2023/09/09 02:50:19;;;;;;;21.08;19.08;;;;;;;13.82;100.00;95518.75;4986663;28;20026;-93
2023/09/09 02:52:44;;;;;;;20.15;18.08;;;;;;;13.83;100.00;95509.97;4971360;28;20085;-94
2023/09/09 02:55:10;;;;;;;20.55;18.55;;;;;;;13.69;100.00;95514.13;4970449;28;20034;-95
2023/09/09 02:57:35;;;;;;;20.63;18.50;;;;;;;13.64;100.00;95502.66;4971886;28;20074;-94
2023/09/09 03:00:01;;;;;;;21.20;19.08;;;;;;;13.55;100.00;95499.28;4970187;28;20030;-95
2023/09/09 03:02:26;;;;;;;19.90;18.00;;;;;;;13.72;100.00;95497.34;4970425;28;20026;-94
2023/09/09 03:04:52;;;;;;;20.17;18.27;;;;;;;13.52;100.00;95489.22;4971398;28;20492;-94
2023/09/09 03:07:17;;;;;;;20.83;18.75;;;;;;;13.44;100.00;95493.69;4972142;28;20105;-93
2023/09/09 03:09:45;;;;;;;19.25;17.55;;;;;;;13.48;100.00;95500.19;4971335;28;20058;-94
2023/09/09 03:12:10;;;;;;;19.15;17.20;;;;;;;13.57;100.00;95491.31;4970049;28;20023;-94
2023/09/09 03:14:36;;;;;;;21.77;19.42;;;;;;;13.35;100.00;95492.13;4970848;28;20427;-95
2023/09/09 03:17:01;;;;;;;18.90;17.10;;;;;;;13.37;100.00;95492.75;4971550;28;20109;-94
2023/09/09 03:19:26;;;;;;;18.08;16.55;;;;;;;13.50;100.00;95493.00;4971555;28;20027;-94
2023/09/09 03:21:52;;;;;;;18.65;16.77;;;;;;;13.36;100.00;95486.75;4972460;28;20476;-92
2023/09/09 03:24:17;;;;;;;18.60;16.95;;;;;;;13.31;100.00;95496.06;4978551;28;20034;-91
2023/09/09 03:26:43;;;;;;;18.73;17.10;;;;;;;13.27;100.00;95492.19;4985044;28;20030;-92
2023/09/09 03:29:08;;;;;;;18.92;16.88;;;;;;;13.11;100.00;95491.31;4988675;28;20022;-91
2023/09/09 03:34:08;;;;;;;43.78;19.60;;;;;;;12.99;100.00;95490.06;5683176;22;20057;-91
2023/09/09 03:36:34;;;;;;;19.42;17.50;;;;;;;13.00;100.00;95486.47;5014488;28;20052;-91
2023/09/09 03:39:03;;;;;;;16.88;15.38;;;;;;;12.94;100.00;95487.16;5014796;28;20315;-90
2023/09/09 03:41:28;;;;;;;17.75;16.00;;;;;;;12.97;100.00;95489.41;5296798;23;20588;-91
2023/09/09 03:43:54;;;;;;;16.25;14.82;;;;;;;13.01;100.00;95482.09;5015478;28;20545;-92
2023/09/09 04:01:51;;;;;;;15.52;14.00;;;;;;;12.83;100.00;95479.78;5407668;22;20065;-90
2023/09/09 04:04:16;;;;;;;14.15;12.63;;;;;;;12.83;100.00;95471.16;5015260;28;20034;-89
2023/09/09 04:06:41;;;;;;;15.35;13.57;;;;;;;12.92;100.00;95463.13;5012049;28;20037;-91
2023/09/09 04:09:07;;;;;;;14.93;13.63;;;;;;;12.92;100.00;95457.13;5010949;28;20080;-90
2023/09/09 04:11:32;;;;;;;14.82;13.63;;;;;;;12.99;100.00;95452.84;5018675;28;20073;-90
2023/09/09 04:13:59;;;;;;;15.75;14.38;;;;;;;12.89;100.00;95458.28;5024348;28;20040;-90
2023/09/09 04:16:25;;;;;;;15.55;14.05;;;;;;;13.07;100.00;95455.38;5015916;28;20488;-92
2023/09/09 04:18:50;;;;;;;14.40;12.80;;;;;;;13.08;100.00;95450.06;5014155;28;20030;-93
2023/09/09 04:21:15;;;;;;;14.65;13.38;;;;;;;13.14;100.00;95453.75;5013976;28;20026;-91
2023/09/09 04:23:41;;;;;;;14.60;13.10;;;;;;;13.13;100.00;95452.94;5014509;28;20053;-92
2023/09/09 04:26:06;;;;;;;13.30;12.30;;;;;;;13.11;100.00;95456.69;5013489;28;20109;-91
2023/09/09 04:28:31;;;;;;;14.25;12.57;;;;;;;13.14;100.00;95451.16;5014322;28;20375;-93
2023/09/09 04:30:57;;;;;;;13.02;11.80;;;;;;;13.20;100.00;95453.06;5012793;28;20106;-95
2023/09/09 04:33:22;;;;;;;20.88;13.70;;;;;;;13.29;100.00;95446.00;5013930;28;20025;-94
2023/09/09 04:35:48;;;;;;;14.18;12.85;;;;;;;13.46;100.00;95450.88;5013693;28;20033;-94
2023/09/09 04:38:13;;;;;;;13.00;11.73;;;;;;;13.55;100.00;95430.81;5013486;28;20458;-94
2023/09/09 04:40:40;;;;;;;12.75;11.55;;;;;;;13.62;100.00;95421.31;5013717;28;20080;-91
2023/09/09 04:43:06;;;;;;;13.68;11.50;;;;;;;13.90;100.00;95411.88;5012740;28;20033;-92
2023/09/09 04:45:31;;;;;;;13.32;12.13;;;;;;;13.97;100.00;95386.75;5013821;28;20034;-94
2023/09/09 04:47:56;;;;;;;13.15;10.43;;;;;;;14.89;100.00;95342.69;5012564;28;20096;-93
2023/09/09 04:50:22;;;;;;;10.45;8.43;;;;;;;17.10;100.00;95201.84;5013772;28;20102;-90
2023/09/09 04:52:47;;;;;;;8.77;6.90;;;;;;;18.51;100.00;95141.28;5012682;28;20053;-91
2023/09/09 04:55:13;;;;;;;8.95;8.02;;;;;;;19.34;100.00;95137.22;5013149;28;20037;-91
2023/09/09 04:57:40;;;;;;;7.50;5.97;;;;;;;19.80;100.00;95128.78;5013075;28;20028;-91
2023/09/09 05:00:07;;;;;;;7.60;5.60;;;;;;;20.27;100.00;95124.47;5013027;28;20021;-92
2023/09/09 05:02:37;;;;;;;5.93;5.13;;;;;;;20.69;100.00;95121.78;5013573;28;20077;-89
2023/09/09 05:05:04;;;;;;;8.48;5.47;;;;;;;21.03;100.00;95120.94;5012318;28;20080;-89
2023/09/09 05:07:35;;;;;;;6.10;5.28;;;;;;;21.25;100.00;95110.66;5013256;28;20117;-90
2023/09/09 05:10:04;;;;;;;12.65;5.30;;;;;;;21.68;100.00;95104.88;5012197;28;20092;-90
2023/09/09 05:12:31;;;;;;;6.80;5.10;;;;;;;21.83;100.00;95099.91;5013740;28;20022;-89
2023/09/09 05:14:56;;;;;;;7.47;5.37;;;;;;;21.97;100.00;95104.69;5012575;28;20095;-90
2023/09/09 05:17:22;;;;;;;6.05;5.28;;;;;;;22.46;100.00;95115.53;5012739;28;20411;-89
2023/09/09 05:19:47;;;;;;;6.90;5.85;;;;;;;22.32;100.00;95109.75;5013038;28;20030;-92
2023/09/09 05:22:12;;;;;;;8.55;5.80;;;;;;;22.73;100.00;95115.72;5011648;28;20348;-91
2023/09/09 05:24:39;;;;;;;8.27;7.25;;;;;;;22.94;100.00;95113.09;5013002;28;20385;-90
2023/09/09 05:27:04;;;;;;;7.70;6.68;;;;;;;23.37;100.00;95117.66;5012091;28;20662;-92
2023/09/09 05:29:29;;;;;;;7.90;5.95;;;;;;;24.05;96.84;95118.94;5013366;28;20109;-93
2023/09/09 05:31:55;;;;;;;7.95;7.25;;;;;;;23.78;96.50;95126.06;5012322;28;20029;-92
2023/09/09 05:34:20;;;;;;;7.07;6.38;;;;;;;24.39;94.68;95115.06;5012431;28;20491;-93
2023/09/09 05:36:46;;;;;;;7.88;6.63;;;;;;;24.23;98.30;95118.63;5012971;28;20110;-93
2023/09/09 05:39:12;;;;;;;8.82;8.13;;;;;;;24.73;93.36;95123.50;5012100;28;20103;-92
2023/09/09 05:41:37;;;;;;;7.20;6.15;;;;;;;23.82;100.00;95120.06;5013221;28;20449;-92
2023/09/09 05:44:03;;;;;;;8.23;6.15;;;;;;;24.51;96.75;95117.53;5011800;28;20030;-92
2023/09/09 05:46:28;;;;;;;12.32;5.38;;;;;;;24.63;97.77;95120.78;5013173;28;20030;-91
2023/09/09 05:48:54;;;;;;;6.45;5.85;;;;;;;25.06;94.00;95117.13;4994270;28;20030;-92
2023/09/09 05:51:19;;;;;;;6.18;5.78;;;;;;;25.47;90.20;95120.78;4995314;28;20022;-92
2023/09/09 05:53:44;;;;;;;7.93;6.38;;;;;;;25.65;88.00;95110.53;5011642;28;20095;-92
2023/09/09 05:56:10;;;;;;;8.82;7.75;;;;;;;26.78;78.94;95117.63;5012537;28;20037;-91
2023/09/09 05:58:35;;;;;;;10.63;7.78;;;;;;;26.17;82.74;95121.03;5012488;28;20465;-91
2023/09/09 06:01:01;;;;;;;9.68;8.82;;;;;;;25.46;86.78;95127.16;4993909;28;20092;-92
2023/09/09 06:03:27;;;;;;;8.30;7.57;;;;;;;25.53;89.09;95125.09;5012509;28;20029;-92
2023/09/09 06:05:52;;;;;;;10.50;8.50;;;;;;;25.43;92.54;95123.16;5011825;28;20049;-93
2023/09/09 06:08:18;;;;;;;9.10;7.85;;;;;;;24.78;96.44;95128.06;5012572;28;20049;-92
2023/09/09 06:10:43;;;;;;;10.02;7.50;;;;;;;24.80;95.16;95125.94;4993814;28;20044;-91
2023/09/09 06:13:09;;;;;;;6.80;6.13;;;;;;;24.65;95.14;95126.66;5012342;28;20022;-91
2023/09/09 06:15:34;;;;;;;7.50;6.90;;;;;;;25.08;95.48;95131.72;5012057;28;20029;-92
2023/09/09 06:18:00;;;;;;;7.60;6.72;;;;;;;28.24;74.18;95127.81;5012129;28;20483;-92
2023/09/09 06:20:26;;;;;;;6.60;6.03;;;;;;;30.21;62.19;95125.84;5012256;28;20466;-92
2023/09/09 06:22:52;;;;;;;8.13;6.03;;;;;;;31.24;57.91;95119.41;5010902;28;20022;-91
2023/09/09 06:25:18;;;;;;;9.50;5.33;;;;;;;30.28;60.11;95126.25;5011896;28;20030;-93
2023/09/09 06:27:44;;;;;;;7.00;6.50;;;;;;;30.92;57.07;95124.75;5010953;28;20077;-90
2023/09/09 06:30:10;;;;;;;6.00;5.47;;;;;;;31.39;55.70;95123.66;5012114;28;20538;-92
2023/09/09 06:32:36;;;;;;;;;;;;;;;30.55;58.34;95122.94;5011531;28;20030;-90
2023/09/09 06:35:02;;;;;;;7.03;6.30;;;;;;;31.67;54.22;95123.38;5010440;28;20474;-89
2023/09/09 06:37:28;;;;;;;6.78;6.28;;;;;;;32.42;52.67;95120.19;5011636;28;20411;-88
2023/09/09 06:39:53;;;;;;;7.97;7.23;;;;;;;33.56;50.71;95124.84;5011012;28;20033;-88
2023/09/09 06:42:18;;;;;;;7.83;7.00;;;;;;;33.83;48.85;95126.53;5011888;28;20434;-87
2023/09/09 06:44:44;;;;;;;7.37;6.70;;;;;;;33.67;48.23;95123.50;5010540;28;20030;-90
2023/09/09 06:47:11;;;;;;;8.80;8.03;;;;;;;34.25;47.20;95125.06;5011528;28;20029;-87
2023/09/09 06:49:36;;;;;;;9.10;8.27;;;;;;;34.19;45.75;95127.13;5010247;28;20030;-90
2023/09/09 06:52:02;;;;;;;8.55;8.00;;;;;;;34.75;44.69;95120.78;5011477;28;20026;-88
2023/09/09 06:54:28;;;;;;;8.50;7.80;;;;;;;35.05;44.72;95126.28;5011194;28;20033;-92
2023/09/09 06:56:53;;;;;;;9.50;8.90;;;;;;;35.46;44.57;95131.88;5011026;28;20549;-90
2023/09/09 06:59:19;;;;;;;9.73;9.00;;;;;;;35.56;42.95;95126.13;5011134;28;20567;-87
2023/09/09 07:01:44;;;;;;;8.90;8.20;;;;;;;35.50;42.61;95130.13;5010025;28;20045;-87
2023/09/09 07:04:09;;;;;;;9.13;8.40;;;;;;;36.14;41.23;95127.28;5011127;28;20022;-90
2023/09/09 07:06:35;;;;;;;8.00;7.43;;;;;;;34.96;42.45;95123.63;4992590;28;20022;-90
2023/09/09 07:09:00;;;;;;;8.07;7.27;;;;;;;35.93;41.66;95122.63;5011134;28;20045;-89
2023/09/09 07:11:26;;;;;;;8.03;7.40;;;;;;;35.33;41.55;95128.28;5010377;28;20502;-87
2023/09/09 07:13:51;;;;;;;8.47;7.50;;;;;;;35.75;40.57;95131.94;5010454;28;20553;-87
2023/09/09 07:16:17;;;;;;;7.97;7.10;;;;;;;36.53;39.38;95134.97;5010707;28;20030;-89
2023/09/09 07:18:42;;;;;;;8.63;7.30;;;;;;;35.73;39.82;95128.78;5009747;28;20083;-87
2023/09/09 07:21:07;;;;;;;7.17;6.50;;;;;;;35.76;38.86;95127.34;5010598;28;20033;-89
2023/09/09 07:23:33;;;;;;;6.93;6.30;;;;;;;36.61;38.89;95138.72;5009872;28;20088;-90
2023/09/09 07:25:58;;;;;;;6.73;5.70;;;;;;;37.00;37.92;95132.03;5010513;28;20053;-89
2023/09/09 07:28:24;;;;;;;6.80;6.20;;;;;;;36.37;37.59;95126.66;5009804;28;20058;-88
2023/09/09 07:30:51;;;;;;;6.53;5.93;;;;;;;36.95;38.27;95123.00;5010618;28;20429;-88
2023/09/09 07:33:17;;;;;;;6.18;5.57;;;;;;;33.58;42.54;95136.09;5010062;28;20022;-89
2023/09/09 07:35:43;;;;;;;6.45;5.80;;;;;;;30.29;49.96;95133.19;5010805;28;20531;-90
2023/09/09 07:38:09;;;;;;;6.65;6.03;;;;;;;29.19;53.90;95134.22;5011062;28;20573;-87
2023/09/09 07:40:34;;;;;;;8.30;6.47;;;;;;;28.17;58.29;95128.13;5009819;28;20049;-89
2023/09/09 07:43:00;;;;;;;5.40;5.00;;;;;;;28.13;56.51;95142.25;5010463;28;20048;-89
2023/09/09 07:45:26;;;;;;;6.28;5.55;;;;;;;27.35;54.71;95122.59;4992607;28;20034;-89
2023/09/09 07:47:51;;;;;;;5.78;5.22;;;;;;;27.55;56.50;95131.31;5012093;28;20079;-92
2023/09/09 07:50:16;;;;;;;7.75;5.38;;;;;;;27.27;57.87;95131.91;5009680;28;20472;-90
2023/09/09 07:52:42;;;;;;;9.75;5.50;;;;;;;27.59;56.36;95135.03;4993038;28;20176;-90
2023/09/09 07:55:08;;;;;;;5.55;5.00;;;;;;;27.63;55.32;95133.44;5010315;28;20037;-91
2023/09/09 07:57:33;;;;;;;5.47;4.50;;;;;;;27.87;52.81;95132.81;5010083;28;20041;-93
2023/09/09 08:00:00;;;;;;;7.57;4.10;;;;;;;26.87;52.53;95126.69;5010701;28;20021;-91
2023/09/09 08:02:25;;;;;;;5.68;4.28;;;;;;;27.56;52.46;95126.78;5008349;28;20065;-90
2023/09/09 08:04:51;;;;;;;5.32;4.05;;;;;;;27.20;51.72;95128.75;5010152;28;20038;-90
2023/09/09 08:07:17;;;;;;;6.32;4.10;;;;;;;27.47;54.44;95123.09;5009487;28;20037;-90
2023/09/09 08:09:43;;;;;;;3.92;3.55;;;;;;;27.47;53.07;95123.91;5011008;28;20392;-90
2023/09/09 08:12:08;;;;;;;6.18;3.50;;;;;;;27.79;48.84;95117.38;5009586;28;20567;-90
2023/09/09 08:14:34;;;;;;;4.10;3.22;;;;;;;27.58;48.63;95120.13;5009709;28;20033;-91
2023/09/09 08:16:59;;;;;;;3.67;3.38;;;;;;;27.89;49.96;95112.00;5009977;28;20028;-90
2023/09/09 08:19:24;;;;;;;5.45;3.55;;;;;;;27.40;49.34;95118.03;5009692;28;20053;-91
2023/09/09 08:21:50;;;;;;;4.93;3.10;;;;;;;27.20;47.72;95105.59;5010267;28;20454;-93
2023/09/09 08:24:15;;;;;;;3.55;3.15;;;;;;;27.92;46.68;95108.78;5009231;28;20026;-90
2023/09/09 08:26:41;;;;;;;4.03;2.90;;;;;;;27.27;45.44;95109.81;5010931;28;20018;-92
2023/09/09 08:29:06;;;;;;;5.63;3.03;;;;;;;27.69;48.67;95104.91;5009317;28;20089;-90
2023/09/09 08:31:31;;;;;;;7.55;3.13;;;;;;;27.32;48.00;95105.31;5009993;28;20101;-83
2023/09/09 08:33:57;;;;;;;2.92;2.60;;;;;;;27.38;44.80;95098.91;5010245;28;20095;-91
2023/09/09 08:36:23;;;;;;;3.80;2.83;;;;;;;27.61;46.17;95094.84;5009542;28;20424;-90
2023/09/09 08:38:48;;;;;;;6.63;2.88;;;;;;;27.48;45.04;95092.78;5010487;28;20022;-89
2023/09/09 08:41:22;;;;;;;4.07;2.55;;;;;;;27.92;41.65;95093.59;5009083;28;20030;-90
2023/09/09 08:44:06;;;;;;;2.90;2.60;;;;;;;27.55;40.97;95088.72;5010076;28;20121;-91
2023/09/09 08:46:31;;;;;;;3.17;2.50;;;;;;;27.85;41.63;95092.31;5008779;28;20038;-86
2023/09/09 08:48:58;;;;;;;3.35;2.45;;;;;;;28.11;41.17;95083.94;5009739;28;20030;-87
2023/09/09 08:51:34;;;;;;;3.70;2.90;;;;;;;28.20;41.86;95076.13;5009556;28;20032;-92
2023/09/09 08:54:00;;;;;;;3.22;2.45;;;;;;;28.19;40.66;95090.56;4991280;28;20036;-89
2023/09/09 08:56:25;;;;;;;4.28;1.98;;;;;;;27.55;40.88;95087.97;4992852;28;20030;-89
2023/09/09 08:58:51;;;;;;;4.32;2.28;;;;;;;26.20;37.92;95075.38;4994822;28;20058;-90
2023/09/09 09:01:17;;;;;;;2.63;2.13;;;;;;;27.40;37.29;95079.97;4996390;28;20435;-92
2023/09/09 09:03:42;;;;;;;2.97;1.90;;;;;;;26.62;37.45;95069.78;5010782;28;20116;-86
2023/09/09 09:06:09;;;;;;;3.95;2.00;;;;;;;25.78;37.19;95074.75;4995183;28;20462;-91
2023/09/09 09:08:35;;;;;;;2.22;1.98;;;;;;;27.60;34.95;95067.41;5011599;28;20025;-93
2023/09/09 09:11:03;;;;;;;3.97;1.88;;;;;;;28.12;33.46;95071.41;5012174;28;20125;-89
2023/09/09 09:13:32;;;;;;;1.90;1.75;;;;;;;27.30;34.78;95066.72;5012063;28;20510;-88
2023/09/09 09:15:58;;;;;;;4.22;2.25;;;;;;;27.45;33.99;95070.16;5011398;28;20057;-92
2023/09/09 09:18:24;;;;;;;3.97;1.83;;;;;;;27.92;34.44;95063.50;5012741;28;20026;-90
2023/09/09 09:20:51;;;;;;;3.53;1.48;;;;;;;27.51;32.65;95058.41;5011752;28;20025;-90
2023/09/09 09:23:17;;;;;;;2.67;1.85;;;;;;;27.80;33.71;95055.88;5012080;28;20472;-89
2023/09/09 09:25:44;;;;;;;4.75;1.70;;;;;;;26.96;32.65;95055.94;4993079;28;20032;-82
2023/09/09 09:28:11;;;;;;;3.25;1.60;;;;;;;28.00;31.68;95062.94;4978589;28;20490;-87
2023/09/09 09:30:37;;;;;;;1.70;1.60;;;;;;;28.20;33.02;95052.16;5011748;28;20500;-87
2023/09/09 09:33:02;;;;;;;1.50;1.30;;;;;;;28.16;32.65;95051.91;5011159;28;20104;-80
2023/09/09 09:35:29;;;;;;;2.25;1.50;;;;;;;26.65;32.55;95047.97;5011547;28;20038;-90
2023/09/09 09:38:02;;;;;;;1.88;1.60;;;;;;;27.28;30.90;95052.91;5011167;28;20045;-92
2023/09/09 09:40:29;;;;;;;3.03;1.60;;;;;;;26.40;31.21;95045.34;5012403;28;20030;-92
2023/09/09 09:42:55;;;;;;;1.85;1.42;;;;;;;27.68;31.27;95037.53;5011312;28;20508;-93
2023/09/09 09:45:30;;;;;;;5.20;1.25;;;;;;;27.22;31.69;95041.47;5011450;28;20105;-90
2023/09/09 09:47:58;;;;;;;2.40;1.70;;;;;;;26.91;33.41;95043.44;5010769;28;20025;-84
2023/09/09 09:50:30;;;;;;;1.75;1.58;;;;;;;27.53;33.00;95036.84;5011062;28;20076;-92
2023/09/09 09:53:05;;;;;;;2.05;1.63;;;;;;;27.73;33.19;95034.06;5011409;28;20029;-93
2023/09/09 09:55:33;;;;;;;3.22;2.10;;;;;;;27.66;32.66;95033.56;5010420;28;20052;-92
2023/09/09 09:58:00;;;;;;;3.40;2.30;;;;;;;25.75;34.52;95035.44;5011285;28;20439;-87
2023/09/09 10:00:26;;;;;;;1.83;1.73;;;;;;;27.16;32.96;95043.34;5010220;28;20479;-90
2023/09/09 10:02:55;;;;;;;3.00;1.60;;;;;;;27.36;33.12;95025.69;4993369;28;20049;-85
2023/09/09 10:05:22;;;;;;;1.65;1.55;;;;;;;28.53;32.08;95035.34;5010887;28;20032;-89
2023/09/09 10:08:10;;;;;;;3.60;1.40;;;;;;;27.80;32.15;95029.22;5010484;28;20034;-91
2023/09/09 10:10:37;;;;;;;3.17;1.52;;;;;;;28.22;32.33;95021.47;5010397;28;20068;-93
2023/09/09 10:13:36;;;;;;;1.77;1.50;;;;;;;28.44;33.08;95026.38;4992878;28;20039;-86
2023/09/09 10:16:02;;;;;;;4.25;1.67;;;;;;;27.87;33.07;95028.94;5007710;28;20037;-91
2023/09/09 10:18:28;;;;;;;1.67;1.58;;;;;;;28.44;33.06;95022.91;5011689;28;20053;-91
2023/09/09 10:20:54;;;;;;;1.65;1.50;;;;;;;28.24;33.20;95013.22;5011047;28;20030;-87
2023/09/09 10:23:21;;;;;;;1.63;1.25;;;;;;;28.00;33.45;95017.66;4993999;28;20033;-93
2023/09/09 10:25:49;;;;;;;4.38;1.58;;;;;;;27.10;33.12;95014.41;5009849;28;20177;-88
2023/09/09 10:28:15;;;;;;;2.47;1.58;;;;;;;27.78;33.66;95015.38;5010719;28;20034;-85
2023/09/09 10:30:40;;;;;;;1.70;1.60;;;;;;;27.57;32.92;95017.38;5009987;28;20037;-91
2023/09/09 10:33:07;;;;;;;1.80;1.30;;;;;;;27.87;33.92;95013.72;4993389;28;20045;-90
2023/09/09 10:35:34;;;;;;;1.98;1.67;;;;;;;27.89;34.64;95014.25;5010047;28;20480;-87
2023/09/09 10:37:59;;;;;;;4.03;1.63;;;;;;;27.69;34.89;95004.53;5010642;28;20796;-92
2023/09/09 10:40:25;;;;;;;3.97;2.00;;;;;;;27.62;35.01;95012.03;5009972;28;20026;-87
2023/09/09 10:42:51;;;;;;;4.22;2.10;;;;;;;27.46;36.61;95002.53;4992202;28;20084;-91
2023/09/09 10:45:31;;;;;;;5.78;1.60;;;;;;;27.64;36.49;94991.25;5011246;28;20049;-90
2023/09/09 10:48:03;;;;;;;6.10;1.77;;;;;;;27.50;35.83;94992.13;5009076;28;20581;-91
2023/09/09 10:50:49;;;;;;;2.78;1.65;;;;;;;27.50;36.52;94984.94;4992380;28;20030;-89
2023/09/09 10:53:26;;;;;;;3.97;1.55;;;;;;;27.43;35.88;94987.13;5010097;28;20517;-85
2023/09/09 10:56:01;;;;;;;3.78;1.80;;;;;;;27.65;36.66;94987.50;5009855;28;20034;-93
2023/09/09 10:58:32;;;;;;;1.85;1.52;;;;;;;27.47;36.70;94982.84;4992795;28;20033;-84
2023/09/09 11:00:58;;;;;;;3.47;1.92;;;;;;;27.30;36.97;94978.91;5008226;28;20611;-89
2023/09/09 11:03:28;;;;;;;4.13;1.70;;;;;;;27.30;37.17;94977.03;5009665;28;20042;-81
2023/09/09 11:05:59;;;;;;;1.77;1.48;;;;;;;27.32;35.66;94976.78;5009750;28;20081;-82
2023/09/09 11:08:28;;;;;;;2.90;1.58;;;;;;;27.03;33.95;94976.66;5009509;28;20037;-90
2023/09/09 11:11:10;;;;;;;2.42;1.60;;;;;;;27.48;36.70;94970.34;5009972;28;20026;-85
2023/09/09 11:13:40;;;;;;;4.38;1.85;;;;;;;27.57;35.99;94977.47;5008676;28;20399;-87
2023/09/09 11:16:06;;;;;;;2.40;1.70;;;;;;;27.45;36.10;94973.53;5009777;28;20030;-89
2023/09/09 11:18:35;;;;;;;5.63;1.70;;;;;;;27.23;36.29;94964.03;5008569;28;20025;-86
2023/09/09 11:21:02;;;;;;;2.28;1.33;;;;;;;27.26;36.42;94964.56;5008789;28;20036;-91
2023/09/09 11:23:28;;;;;;;2.30;1.30;;;;;;;27.45;36.08;94966.34;5009554;28;20092;-86
2023/09/09 11:25:56;;;;;;;2.90;1.48;;;;;;;27.31;35.62;94962.69;5009010;28;20029;-91
2023/09/09 11:28:22;;;;;;;2.92;1.52;;;;;;;27.07;34.47;94959.06;4992288;28;20026;-89
2023/09/09 11:30:47;;;;;;;2.22;1.50;;;;;;;27.13;35.52;94958.75;4990994;28;20109;-90
2023/09/09 11:33:25;;;;;;;3.42;1.70;;;;;;;27.27;35.61;94952.84;5009944;28;20049;-86
2023/09/09 11:35:51;;;;;;;1.83;1.60;;;;;;;27.24;35.32;94952.34;5009085;28;20030;-88
2023/09/09 11:38:16;;;;;;;1.98;1.75;;;;;;;27.35;36.02;94944.28;5009221;28;20435;-88
2023/09/09 11:40:45;;;;;;;2.30;1.40;;;;;;;26.96;34.50;94949.53;5008685;28;20022;-91
2023/09/09 11:43:14;;;;;;;3.38;1.77;;;;;;;27.28;35.97;94949.91;5008972;28;20030;-87